Time;durP1;ratioP1;P1;durP2;ratioP2;P2;SDS_P1;SDS_P2;PMS_P1;PMS_P2;Temp;Humidity;BMP_temperature;BMP_pressure;BME280_temperature;BME280_humidity;BME280_pressure;Samples;Min_cycle;Max_cycle;Signal;HPM_P1;HPM_P2
2022/10/06 11:02:18;;;;;;;;;1.00;1.00;;;;;18.94;60.47;102884.03;5121669;27;45848;-77
2022/10/06 11:04:48;;;;;;;;;1.67;1.00;;;;;19.11;60.26;102885.81;5107559;27;45408;-74
2022/10/06 11:07:29;;;;;;;;;1.00;1.00;;;;;19.33;59.38;102884.59;5101628;27;45379;-77
2022/10/06 11:09:58;;;;;;;;;0.67;0.67;;;;;19.53;59.29;102886.13;5105780;27;45718;-75
2022/10/06 11:13:17;;;;;;;;;2.00;2.00;;;;;19.82;58.82;102882.69;5107967;27;45507;-73
2022/10/06 11:15:57;;;;;;;;;0.00;0.00;;;;;20.09;58.24;102882.00;5069259;28;45352;-73
2022/10/06 11:18:31;;;;;;;;;3.00;1.00;;;;;20.32;57.62;102880.59;5065723;28;45484;-74
2022/10/06 11:21:02;;;;;;;;;2.33;1.00;;;;;20.55;56.84;102886.38;5063110;28;45540;-75
2022/10/06 11:23:46;;;;;;;;;1.00;1.00;;;;;20.77;56.48;102882.31;5064287;28;45428;-75
2022/10/06 11:26:27;;;;;;;;;1.33;1.00;;;;;20.97;56.72;102881.03;5067812;28;45530;-76
2022/10/06 11:28:58;;;;;;;;;1.00;0.33;;;;;21.15;56.21;102879.00;5068232;28;45471;-75
2022/10/06 11:31:43;;;;;;;;;1.67;1.00;;;;;21.32;55.86;102877.88;5057679;27;45483;-76
2022/10/06 11:34:09;;;;;;;;;1.33;1.33;;;;;21.51;55.62;102881.19;5077919;27;45684;-77
2022/10/06 11:37:01;;;;;;;;;1.00;1.00;;;;;21.64;55.10;102868.59;5060539;27;45907;-76
2022/10/06 11:39:29;;;;;;;;;1.00;1.00;;;;;21.79;54.33;102880.19;5068328;28;45643;-76
2022/10/06 11:42:05;;;;;;;;;1.67;1.67;;;;;21.89;54.19;102868.75;5059277;28;45325;-77
2022/10/06 11:44:39;;;;;;;;;2.67;1.00;;;;;22.01;53.88;102875.16;5067913;28;45431;-76
2022/10/06 11:47:10;;;;;;;;;1.00;1.00;;;;;22.08;54.01;102868.34;5045772;28;45371;-76
2022/10/06 11:49:50;;;;;;;;;1.00;1.00;;;;;22.20;53.58;102864.78;5082577;27;45714;-76
2022/10/06 11:52:15;;;;;;;;;0.00;0.00;;;;;22.27;53.42;102870.63;5097246;27;45494;-76
2022/10/06 11:54:44;;;;;;;;;1.67;1.67;;;;;22.34;53.20;102862.94;5108114;27;45339;-77
2022/10/06 11:57:21;;;;;;;;;0.00;0.00;;;;;22.43;53.13;102861.44;5111594;27;45501;-77
2022/10/06 11:59:48;;;;;;;;;0.33;0.33;;;;;22.51;52.82;102865.31;5118705;27;45387;-77
2022/10/06 12:02:31;;;;;;;;;2.67;1.00;;;;;22.62;52.53;102855.56;5111170;27;45529;-76
2022/10/06 12:05:08;;;;;;;;;0.00;0.00;;;;;22.70;52.56;102857.72;5095278;27;45532;-77
2022/10/06 12:07:57;;;;;;;;;0.00;0.00;;;;;22.76;52.40;102844.59;5108479;27;45513;-76
2022/10/06 12:10:28;;;;;;;;;0.00;0.00;;;;;22.87;52.22;102841.13;5099552;27;46870;-76
2022/10/06 12:13:12;;;;;;;;;4.00;1.00;;;;;22.96;51.94;102842.25;5100857;27;45412;-77
2022/10/06 12:16:19;;;;;;;;;1.00;1.00;;;;;23.05;51.64;102829.88;5096863;27;46305;-76
2022/10/06 12:19:15;;;;;;;;;0.33;0.33;;;;;23.14;51.54;102831.88;5087748;27;45518;-77
2022/10/06 12:21:49;;;;;;;;;0.00;0.00;;;;;23.22;51.32;102825.03;5084975;27;45431;-76
2022/10/06 12:24:47;;;;;;;;;0.67;0.67;;;;;23.29;51.10;102834.41;5086819;27;45374;-76
2022/10/06 12:27:36;;;;;;;;;2.00;1.00;;;;;23.36;50.97;102827.59;5065534;28;45473;-77
2022/10/06 12:30:18;;;;;;;;;0.00;0.00;;;;;23.45;50.73;102825.19;5060316;28;45475;-77
2022/10/06 12:32:57;;;;;;;;;0.00;0.00;;;;;23.47;50.79;102815.94;5074234;28;45566;-75
2022/10/06 12:35:32;;;;;;;;;1.00;0.33;;;;;23.54;50.66;102822.63;5074020;28;45772;-75
2022/10/06 12:38:03;;;;;;;;;0.00;0.00;;;;;23.54;50.11;102810.94;5074240;28;46063;-77
2022/10/06 12:40:41;;;;;;;;;0.67;0.67;;;;;23.63;50.55;102818.31;5073036;28;45491;-76
2022/10/06 12:43:19;;;;;;;;;1.00;1.00;;;;;23.63;50.32;102803.91;5056433;27;45660;-76
2022/10/06 12:46:11;;;;;;;;;1.00;1.00;;;;;23.59;49.83;102788.88;5058416;28;45459;-76
2022/10/06 12:48:50;;;;;;;;;0.00;0.00;;;;;23.75;49.72;102816.50;5052781;27;47334;-76
2022/10/06 12:51:38;;;;;;;;;1.00;0.33;;;;;23.79;49.52;102817.13;5074913;27;46533;-76
2022/10/06 12:54:18;;;;;;;;;1.00;1.00;;;;;23.82;49.21;102812.34;5066804;27;45566;-76
2022/10/06 12:56:58;;;;;;;;;2.00;2.00;;;;;23.85;48.86;102807.63;5058746;27;46047;-79
2022/10/06 12:59:25;;;;;;;;;2.00;1.00;;;;;23.85;48.77;102811.22;5066280;27;46190;-81
2022/10/06 13:01:57;;;;;;;;;3.00;1.00;;;;;23.82;48.80;102797.91;5070973;27;45490;-75
2022/10/06 13:04:31;;;;;;;;;0.33;0.33;;;;;23.84;48.70;102795.94;5088440;27;45479;-80
2022/10/06 13:06:57;;;;;;;;;1.33;0.33;;;;;23.84;48.41;102792.34;5100677;27;45481;-76
2022/10/06 13:09:22;;;;;;;;;1.00;1.00;;;;;23.87;48.59;102794.84;5093688;27;46270;-76
2022/10/06 13:11:48;;;;;;;;;0.00;0.00;;;;;23.89;48.19;102792.84;5087776;27;45520;-76
2022/10/06 13:14:14;;;;;;;;;2.33;1.00;;;;;23.87;47.80;102782.13;5092229;27;45482;-76
2022/10/06 13:16:43;;;;;;;;;1.00;1.00;;;;;23.95;47.79;102784.25;5099869;27;45455;-76
2022/10/06 13:19:21;;;;;;;;;3.00;0.00;;;;;23.96;47.91;102783.25;5084929;27;46215;-76
2022/10/06 13:21:46;;;;;;;;;1.00;0.00;;;;;24.01;47.58;102778.34;5083690;27;45468;-76
2022/10/06 13:24:15;;;;;;;;;3.00;1.33;;;;;24.04;47.69;102779.94;5099578;27;45425;-78
2022/10/06 13:26:41;;;;;;;;;2.00;2.00;;;;;24.07;47.38;102787.81;5092718;27;45422;-76
2022/10/06 13:29:24;;;;;;;;;3.00;2.00;;;;;24.08;47.31;102784.97;5106493;27;46138;-75
2022/10/06 13:31:52;;;;;;;;;1.33;1.33;;;;;24.09;47.31;102777.75;5076180;27;45522;-75
2022/10/06 13:34:33;;;;;;;;;1.00;1.00;;;;;24.11;46.98;102770.34;5085953;27;45884;-75
2022/10/06 13:37:00;;;;;;;;;1.00;1.00;;;;;24.15;47.01;102770.97;5088230;27;45385;-75
2022/10/06 13:39:30;;;;;;;;;0.67;0.67;;;;;24.19;46.96;102767.00;5081049;27;46020;-75
2022/10/06 13:42:09;;;;;;;;;2.67;1.00;;;;;24.19;46.78;102756.16;5075866;27;45703;-74
2022/10/06 13:44:41;;;;;;;;;1.00;1.00;;;;;24.23;46.38;102763.06;5096895;27;45413;-75
2022/10/06 13:47:17;;;;;;;;;1.00;1.00;;;;;24.27;46.60;102758.28;5074890;27;45456;-76
2022/10/06 13:49:49;;;;;;;;;0.00;0.00;;;;;24.27;46.23;102753.69;5093403;27;46069;-81
2022/10/06 13:52:18;;;;;;;;;2.00;2.00;;;;;24.31;46.43;102751.56;5079592;27;45951;-78
2022/10/06 13:54:54;;;;;;;;;2.00;2.00;;;;;24.32;45.94;102759.59;5078170;27;45429;-79
2022/10/06 13:57:42;;;;;;;;;0.00;0.00;;;;;24.35;45.77;102753.06;5087200;27;45516;-78
2022/10/06 14:00:13;;;;;;;;;3.00;1.00;;;;;24.38;45.73;102749.22;5083364;27;47174;-80
2022/10/06 14:02:40;;;;;;;;;1.67;1.00;;;;;24.39;45.74;102757.25;5094102;27;45364;-81
2022/10/06 14:05:19;;;;;;;;;1.00;1.00;;;;;24.37;45.68;102750.22;5075855;27;45386;-83
2022/10/06 14:07:46;;;;;;;;;1.67;1.33;;;;;24.38;45.84;102743.78;5093974;27;45768;-79
2022/10/06 14:10:18;;;;;;;;;1.00;1.00;;;;;24.42;45.23;102748.88;5095694;27;46853;-77
2022/10/06 14:12:44;;;;;;;;;0.00;0.00;;;;;24.43;45.39;102753.28;5095310;27;45361;-76
2022/10/06 14:15:21;;;;;;;;;3.67;1.00;;;;;24.43;44.78;102745.16;5099380;27;45596;-77
2022/10/06 14:18:18;;;;;;;;;1.00;1.00;;;;;24.42;44.84;102746.16;5108075;27;45818;-76
2022/10/06 14:20:46;;;;;;;;;1.00;1.00;;;;;24.41;45.30;102743.56;5085122;27;46000;-74
2022/10/06 14:23:31;;;;;;;;;4.67;2.00;;;;;24.40;45.53;102745.41;5094614;27;45403;-77
2022/10/06 14:25:56;;;;;;;;;1.33;1.33;;;;;24.38;45.47;102730.22;5074858;27;45421;-76
2022/10/06 14:28:21;;;;;;;;;4.00;1.33;;;;;24.39;45.15;102737.41;5086887;27;45520;-76
2022/10/06 14:30:46;;;;;;;;;2.33;1.00;;;;;24.34;45.01;102730.50;5087624;27;48020;-75
2022/10/06 14:33:12;;;;;;;;;1.67;0.67;;;;;24.36;45.13;102734.94;5094107;27;58582;-76
2022/10/06 14:35:37;;;;;;;;;2.00;0.33;;;;;24.34;45.26;102721.47;5094989;27;51995;-76
2022/10/06 14:38:02;;;;;;;;;2.00;1.67;;;;;24.34;45.11;102730.50;5094498;27;53945;-76
2022/10/06 14:40:28;;;;;;;;;2.00;1.00;;;;;24.27;44.57;102715.69;5094722;27;46181;-76
2022/10/06 14:42:53;;;;;;;;;1.33;1.33;;;;;24.38;44.93;102732.94;5095761;27;45362;-76
2022/10/06 14:45:18;;;;;;;;;2.33;0.33;;;;;24.38;44.83;102728.38;5088683;27;50706;-76
2022/10/06 14:47:45;;;;;;;;;1.00;1.00;;;;;24.38;44.68;102722.09;5094464;27;48574;-76
2022/10/06 14:50:10;;;;;;;;;2.00;2.00;;;;;24.38;44.59;102731.09;5087227;27;47389;-75
2022/10/06 14:52:36;;;;;;;;;3.00;1.67;;;;;24.37;44.49;102726.66;5077755;27;45681;-75
2022/10/06 14:55:03;;;;;;;;;6.00;2.33;;;;;24.34;44.26;102726.91;5097016;27;45433;-75
2022/10/06 14:57:28;;;;;;;;;4.00;1.67;;;;;24.32;44.42;102721.59;5095527;27;45627;-79
2022/10/06 14:59:53;;;;;;;;;2.00;2.00;;;;;24.30;44.48;102715.47;5093778;27;47256;-79
2022/10/06 15:02:19;;;;;;;;;2.67;2.67;;;;;24.28;44.43;102711.16;5094038;27;45417;-79
2022/10/06 15:04:44;;;;;;;;;2.00;1.00;;;;;24.23;44.87;102702.53;5086852;27;45414;-79
2022/10/06 15:09:54;;;;;;;;;1.00;1.00;;;;;24.18;44.42;102695.63;5092428;27;45479;-77
2022/10/06 15:12:19;;;;;;;;;3.00;0.00;;;;;24.19;44.72;102693.75;5095110;27;45426;-79
2022/10/06 15:14:44;;;;;;;;;2.00;1.33;;;;;24.13;44.21;102687.00;5094842;27;45623;-80
2022/10/06 15:17:10;;;;;;;;;0.00;0.00;;;;;24.17;44.49;102695.75;5091933;27;45940;-74
2022/10/06 15:19:35;;;;;;;;;2.67;2.67;;;;;24.14;44.68;102690.56;5084294;27;46030;-73
2022/10/06 15:22:03;;;;;;;;;1.00;1.00;;;;;24.13;44.28;102688.84;5085676;27;45451;-74
2022/10/06 15:24:28;;;;;;;;;0.67;0.00;;;;;24.12;44.71;102689.84;5094515;27;45416;-73
2022/10/06 15:29:38;;;;;;;;;1.00;0.00;;;;;24.07;44.71;102682.91;5093946;27;45795;-75
2022/10/06 15:32:04;;;;;;;;;0.00;0.00;;;;;24.05;44.64;102687.59;5094436;27;45268;-75
2022/10/06 15:34:33;;;;;;;;;1.33;1.33;;;;;24.04;44.89;102675.00;5094288;27;45256;-80
2022/10/06 15:36:59;;;;;;;;;1.33;1.33;;;;;24.02;44.77;102681.53;5084621;27;46309;-80
